Time;durP1;ratioP1;P1;durP2;ratioP2;P2;SDS_P1;SDS_P2;PMS_P1;PMS_P2;Temp;Humidity;BMP_temperature;BMP_pressure;BME280_temperature;BME280_humidity;BME280_pressure;Samples;Min_cycle;Max_cycle;Signal;HPM_P1;HPM_P2
2021/09/29 00:00:19;;;;;;;17.17;7.85;;;;;;;;;;4936515;29;20028;-94
2021/09/29 00:02:45;;;;;;;14.65;6.90;;;;;;;;;;4936694;29;20046;-94
2021/09/29 00:05:11;;;;;;;11.65;6.82;;;;;;;;;;4936430;29;20122;-93
2021/09/29 00:07:37;;;;;;;15.55;7.18;;;;;;;;;;4936466;29;20079;-90
2021/09/29 00:10:06;;;;;;;25.02;7.88;;;;;;;;;;4936491;29;20035;-91
2021/09/29 00:12:32;;;;;;;15.10;6.45;;;;;;;;;;4936419;29;20079;-94
2021/09/29 00:14:58;;;;;;;12.77;6.53;;;;;;;;;;4936199;29;20038;-91
2021/09/29 00:17:24;;;;;;;13.82;6.72;;;;;;;;;;4936623;29;20034;-94
2021/09/29 00:19:51;;;;;;;12.55;6.07;;;;;;;;;;4936834;29;20027;-96
2021/09/29 00:22:20;;;;;;;11.80;5.70;;;;;;;;;;4936016;29;20054;-94
2021/09/29 00:24:46;;;;;;;16.27;6.45;;;;;;;;;;4936210;29;20024;-90
2021/09/29 00:27:13;;;;;;;19.52;6.55;;;;;;;;;;4936111;29;20028;-90
2021/09/29 00:29:40;;;;;;;12.27;5.97;;;;;;;;;;4936139;29;20024;-90
2021/09/29 00:32:07;;;;;;;11.70;6.25;;;;;;;;;;4935847;29;20498;-95
2021/09/29 00:34:39;;;;;;;18.85;5.75;;;;;;;;;;4936101;29;20027;-91
2021/09/29 00:37:05;;;;;;;20.42;6.28;;;;;;;;;;4936833;29;20123;-92
2021/09/29 00:39:32;;;;;;;16.50;6.15;;;;;;;;;;4937611;29;20457;-90
2021/09/29 00:41:58;;;;;;;11.85;7.05;;;;;;;;;;4936788;29;20050;-90
2021/09/29 00:44:24;;;;;;;18.08;7.20;;;;;;;;;;4935990;29;20477;-95
2021/09/29 00:46:51;;;;;;;12.98;6.60;;;;;;;;;;4935823;29;20043;-90
2021/09/29 00:49:17;;;;;;;16.00;6.97;;;;;;;;;;4935952;29;20083;-91
2021/09/29 00:51:44;;;;;;;14.70;7.03;;;;;;;;;;4935981;29;20028;-90
2021/09/29 00:54:10;;;;;;;18.27;7.22;;;;;;;;;;4936671;29;20537;-90
2021/09/29 00:56:37;;;;;;;12.75;6.32;;;;;;;;;;4936194;29;20111;-95
2021/09/29 00:59:03;;;;;;;19.42;7.22;;;;;;;;;;4935795;29;20485;-91
2021/09/29 01:01:30;;;;;;;14.82;6.43;;;;;;;;;;4935804;29;20074;-91
2021/09/29 01:03:57;;;;;;;11.90;5.63;;;;;;;;;;4935923;29;20142;-95
2021/09/29 01:06:42;;;;;;;14.30;6.75;;;;;;;;;;4935802;29;20087;-93
2021/09/29 01:09:11;;;;;;;13.13;5.95;;;;;;;;;;4936191;29;20122;-90
2021/09/29 01:11:44;;;;;;;13.65;6.47;;;;;;;;;;4935740;29;20027;-91
2021/09/29 01:14:16;;;;;;;13.60;6.80;;;;;;;;;;4935968;29;20556;-90
2021/09/29 01:16:45;;;;;;;15.18;6.97;;;;;;;;;;4936314;29;20028;-90
2021/09/29 01:19:34;;;;;;;11.38;6.35;;;;;;;;;;4935831;29;20103;-90
2021/09/29 01:22:13;;;;;;;17.67;6.82;;;;;;;;;;4935691;29;20062;-95
2021/09/29 01:24:44;;;;;;;15.18;6.45;;;;;;;;;;4936134;29;20500;-90
2021/09/29 01:27:10;;;;;;;16.58;7.00;;;;;;;;;;4935517;29;20098;-93
2021/09/29 01:29:37;;;;;;;12.65;6.35;;;;;;;;;;4936616;29;20365;-90
2021/09/29 01:32:04;;;;;;;10.60;5.93;;;;;;;;;;4935258;29;20111;-89
2021/09/29 01:34:30;;;;;;;14.93;7.00;;;;;;;;;;4935449;29;20118;-95
2021/09/29 01:36:57;;;;;;;13.43;6.45;;;;;;;;;;4935414;29;20032;-93
2021/09/29 01:39:26;;;;;;;12.38;6.30;;;;;;;;;;4935845;29;20062;-90
2021/09/29 01:41:53;;;;;;;14.32;6.57;;;;;;;;;;4936636;29;20027;-91
2021/09/29 01:44:22;;;;;;;13.60;6.75;;;;;;;;;;4935729;29;20064;-95
2021/09/29 01:46:51;;;;;;;15.57;7.60;;;;;;;;;;4936987;29;20024;-90
2021/09/29 01:49:26;;;;;;;13.75;6.60;;;;;;;;;;4938180;29;20087;-96
2021/09/29 01:51:57;;;;;;;16.52;8.00;;;;;;;;;;4939943;29;20046;-89
2021/09/29 01:54:26;;;;;;;18.67;8.18;;;;;;;;;;4943989;29;20115;-90
2021/09/29 01:56:54;;;;;;;15.13;7.40;;;;;;;;;;4925070;29;20032;-95
2021/09/29 01:59:22;;;;;;;12.93;6.40;;;;;;;;;;4941537;29;20028;-94
2021/09/29 02:01:48;;;;;;;14.38;7.10;;;;;;;;;;4940867;29;20035;-91
2021/09/29 02:04:18;;;;;;;14.52;7.47;;;;;;;;;;4938969;29;20027;-93
2021/09/29 02:06:44;;;;;;;16.02;7.97;;;;;;;;;;4938443;29;20031;-94
2021/09/29 02:09:11;;;;;;;15.32;6.95;;;;;;;;;;4938430;29;20031;-89
2021/09/29 02:11:37;;;;;;;14.90;7.97;;;;;;;;;;4938746;29;20028;-94
2021/09/29 02:14:03;;;;;;;14.48;8.18;;;;;;;;;;4938271;29;20059;-89
2021/09/29 02:16:31;;;;;;;13.75;7.55;;;;;;;;;;4938414;29;20544;-90
2021/09/29 02:18:57;;;;;;;14.13;7.65;;;;;;;;;;4938340;29;20028;-90
2021/09/29 02:21:23;;;;;;;18.48;7.70;;;;;;;;;;4938578;29;20024;-90
2021/09/29 02:23:50;;;;;;;15.25;8.10;;;;;;;;;;4938293;29;20497;-90
2021/09/29 02:26:16;;;;;;;14.90;8.20;;;;;;;;;;4938244;29;20076;-89
2021/09/29 02:28:43;;;;;;;14.23;7.85;;;;;;;;;;4938295;29;20059;-90
2021/09/29 02:31:10;;;;;;;15.75;7.22;;;;;;;;;;4938049;29;20056;-94
2021/09/29 02:33:37;;;;;;;16.17;8.15;;;;;;;;;;4937937;29;20043;-90
2021/09/29 02:36:03;;;;;;;14.25;7.72;;;;;;;;;;4940946;29;20133;-93
2021/09/29 02:38:30;;;;;;;17.73;8.63;;;;;;;;;;4938027;29;20028;-91
2021/09/29 02:40:57;;;;;;;13.80;7.65;;;;;;;;;;4938010;29;20028;-90
2021/09/29 02:43:23;;;;;;;14.95;8.35;;;;;;;;;;4937828;29;20126;-95
2021/09/29 02:45:49;;;;;;;16.77;9.05;;;;;;;;;;4937889;29;20080;-90
2021/09/29 02:48:16;;;;;;;19.15;8.07;;;;;;;;;;4937931;29;20469;-90
2021/09/29 02:50:42;;;;;;;18.15;8.82;;;;;;;;;;4937655;29;20079;-90
2021/09/29 02:53:09;;;;;;;20.58;8.88;;;;;;;;;;4937548;29;20059;-90
2021/09/29 02:55:35;;;;;;;16.80;8.05;;;;;;;;;;4937842;29;20493;-95
2021/09/29 02:58:01;;;;;;;17.48;9.02;;;;;;;;;;4937894;29;20036;-94
2021/09/29 03:00:27;;;;;;;13.20;8.80;;;;;;;;;;4936262;29;20496;-92
2021/09/29 03:02:53;;;;;;;15.50;9.80;;;;;;;;;;4937364;29;20055;-94
2021/09/29 03:05:19;;;;;;;16.75;9.27;;;;;;;;;;4937321;29;20024;-89
2021/09/29 03:07:46;;;;;;;16.88;9.90;;;;;;;;;;4937378;29;20050;-89
2021/09/29 03:10:12;;;;;;;13.63;8.68;;;;;;;;;;4937156;29;20028;-90
2021/09/29 03:12:39;;;;;;;16.48;9.02;;;;;;;;;;4937353;29;20478;-90
2021/09/29 03:15:05;;;;;;;15.13;9.68;;;;;;;;;;4938241;29;20031;-93
2021/09/29 03:17:31;;;;;;;17.10;10.07;;;;;;;;;;4937581;29;20123;-91
2021/09/29 03:19:58;;;;;;;18.50;9.52;;;;;;;;;;4937297;29;20079;-90
2021/09/29 03:22:24;;;;;;;15.90;9.85;;;;;;;;;;4937203;29;20027;-95
2021/09/29 03:24:50;;;;;;;14.48;9.68;;;;;;;;;;4937084;29;20039;-90
2021/09/29 03:27:17;;;;;;;14.77;9.45;;;;;;;;;;4937229;29;20028;-91
2021/09/29 03:29:43;;;;;;;15.43;8.80;;;;;;;;;;4937220;29;20027;-90
2021/09/29 03:32:10;;;;;;;19.55;9.60;;;;;;;;;;4940012;29;20039;-91
2021/09/29 03:34:36;;;;;;;13.80;8.77;;;;;;;;;;4940217;29;20030;-90
2021/09/29 03:37:02;;;;;;;15.95;9.10;;;;;;;;;;4940189;29;20027;-90
2021/09/29 03:39:29;;;;;;;12.88;9.25;;;;;;;;;;4940339;29;20054;-91
2021/09/29 03:41:55;;;;;;;14.48;8.40;;;;;;;;;;4940035;29;20054;-91
2021/09/29 03:44:21;;;;;;;18.55;8.85;;;;;;;;;;4939995;29;20062;-94
2021/09/29 03:46:48;;;;;;;15.55;9.13;;;;;;;;;;4940109;29;20066;-91
2021/09/29 03:49:14;;;;;;;15.25;8.68;;;;;;;;;;4939800;29;20031;-91
2021/09/29 03:51:41;;;;;;;15.23;9.07;;;;;;;;;;4939544;29;20031;-91
2021/09/29 03:54:07;;;;;;;17.33;9.48;;;;;;;;;;4939846;29;20079;-91
2021/09/29 03:56:34;;;;;;;15.23;8.95;;;;;;;;;;4939756;29;20433;-91
2021/09/29 03:59:00;;;;;;;13.25;8.13;;;;;;;;;;4941308;29;20031;-91
2021/09/29 04:01:27;;;;;;;12.85;8.90;;;;;;;;;;4939619;29;20126;-91
2021/09/29 04:03:53;;;;;;;15.73;9.13;;;;;;;;;;4939642;29;20027;-90
2021/09/29 04:06:20;;;;;;;16.27;9.40;;;;;;;;;;4939691;29;20031;-90
2021/09/29 04:08:46;;;;;;;13.80;8.93;;;;;;;;;;4939676;29;20066;-90
2021/09/29 04:11:13;;;;;;;13.65;8.30;;;;;;;;;;4939350;28;20073;-90
2021/09/29 04:13:39;;;;;;;15.52;8.32;;;;;;;;;;4939112;29;20066;-89
2021/09/29 04:16:06;;;;;;;15.30;9.23;;;;;;;;;;4939489;29;20031;-92
2021/09/29 04:18:32;;;;;;;16.40;8.85;;;;;;;;;;4939605;29;20031;-96
2021/09/29 04:20:58;;;;;;;13.80;8.20;;;;;;;;;;4939424;29;20496;-91
2021/09/29 04:23:26;;;;;;;12.68;8.27;;;;;;;;;;4939547;29;20027;-90
2021/09/29 04:25:53;;;;;;;16.30;9.00;;;;;;;;;;4939281;29;20027;-90
2021/09/29 04:28:20;;;;;;;17.77;9.25;;;;;;;;;;4939405;29;20034;-90
2021/09/29 04:30:46;;;;;;;14.60;8.48;;;;;;;;;;4935712;29;20052;-89
2021/09/29 04:33:13;;;;;;;17.67;8.68;;;;;;;;;;4935899;29;20118;-93
2021/09/29 04:35:39;;;;;;;15.50;9.40;;;;;;;;;;4936105;29;20034;-93
2021/09/29 04:38:06;;;;;;;14.38;8.75;;;;;;;;;;4936998;29;20023;-92
2021/09/29 04:40:32;;;;;;;15.18;7.95;;;;;;;;;;4936112;29;20528;-93
2021/09/29 04:42:58;;;;;;;14.52;8.13;;;;;;;;;;4935931;29;20028;-94
2021/09/29 04:45:24;;;;;;;13.48;8.63;;;;;;;;;;4935898;29;20027;-93
2021/09/29 05:07:43;;;;;;;11.70;7.88;;;;;;;;;;3116818;23;20260;-86
2021/09/29 05:16:17;;;;;;;15.05;9.25;;;;;;;;;;5008636;23;20040;-88
2021/09/29 05:18:44;;;;;;;12.63;8.05;;;;;;;;;;4894870;29;20048;-86
2021/09/29 05:21:48;;;;;;;14.82;8.85;;;;;;;;;;4907316;29;20036;-88
2021/09/29 05:24:37;;;;;;;17.95;9.65;;;;;;;;;;4886451;29;20155;-89
2021/09/29 05:27:24;;;;;;;;;;;;;;;;;;;;;
2021/09/29 05:32:38;;;;;;;13.25;8.00;;;;;;;;;;4893250;29;20088;-86
2021/09/29 05:35:09;;;;;;;21.05;8.32;;;;;;;;;;4904089;29;20089;-92
2021/09/29 05:37:56;;;;;;;12.65;8.30;;;;;;;;;;4899018;29;20466;-95
2021/09/29 05:40:25;;;;;;;13.43;7.95;;;;;;;;;;4888604;29;20486;-90
2021/09/29 05:42:51;;;;;;;13.63;8.00;;;;;;;;;;4885457;29;20032;-91
2021/09/29 05:45:17;;;;;;;14.20;8.52;;;;;;;;;;4887273;29;20028;-94
2021/09/29 05:47:45;;;;;;;16.08;8.55;;;;;;;;;;4902045;29;20037;-95
2021/09/29 05:50:13;;;;;;;13.25;8.65;;;;;;;;;;4885881;29;20033;-87
2021/09/29 05:52:39;;;;;;;13.93;8.15;;;;;;;;;;4888046;29;20072;-92
2021/09/29 05:55:08;;;;;;;15.45;7.85;;;;;;;;;;4890291;29;20096;-88
2021/09/29 05:57:34;;;;;;;18.05;7.82;;;;;;;;;;4902218;29;20037;-95
2021/09/29 06:00:03;;;;;;;16.25;8.15;;;;;;;;;;4901994;29;20032;-94
2021/09/29 06:02:29;;;;;;;14.25;9.02;;;;;;;;;;4885319;29;20032;-93
2021/09/29 06:04:55;;;;;;;14.60;8.80;;;;;;;;;;4885380;29;20033;-86
2021/09/29 06:07:23;;;;;;;12.48;8.05;;;;;;;;;;4901931;29;20029;-89
2021/09/29 06:09:49;;;;;;;13.88;8.32;;;;;;;;;;4884934;29;20111;-89
2021/09/29 06:12:15;;;;;;;12.90;8.10;;;;;;;;;;4884962;29;20047;-86
2021/09/29 06:14:48;;;;;;;11.63;7.35;;;;;;;;;;4900646;29;20092;-92
2021/09/29 06:17:22;;;;;;;15.63;7.82;;;;;;;;;;4885042;29;20048;-92
2021/09/29 06:19:49;;;;;;;13.70;7.82;;;;;;;;;;4884577;29;20490;-93
2021/09/29 06:22:15;;;;;;;12.68;7.93;;;;;;;;;;4885536;29;20036;-89
2021/09/29 06:24:42;;;;;;;11.93;7.75;;;;;;;;;;4884608;29;20029;-93
2021/09/29 06:27:08;;;;;;;11.93;7.57;;;;;;;;;;4883887;29;20076;-86
2021/09/29 06:29:34;;;;;;;12.85;7.97;;;;;;;;;;4885742;29;20072;-92
2021/09/29 06:32:02;;;;;;;12.93;7.53;;;;;;;;;;4901549;29;20530;-92
2021/09/29 06:34:28;;;;;;;13.35;8.55;;;;;;;;;;4884507;29;20474;-91
2021/09/29 06:37:02;;;;;;;12.77;7.68;;;;;;;;;;4884951;29;20048;-88
2021/09/29 06:39:30;;;;;;;15.75;8.73;;;;;;;;;;4884960;29;20037;-94
2021/09/29 06:42:00;;;;;;;13.15;8.00;;;;;;;;;;4900742;29;20032;-89
2021/09/29 06:44:28;;;;;;;14.40;8.00;;;;;;;;;;4884534;29;20044;-90
2021/09/29 06:47:14;;;;;;;13.38;7.57;;;;;;;;;;4883543;29;20037;-87
2021/09/29 06:49:44;;;;;;;11.82;8.40;;;;;;;;;;4900814;29;20033;-94
2021/09/29 06:52:13;;;;;;;13.85;8.43;;;;;;;;;;4885145;29;20047;-86
2021/09/29 06:54:39;;;;;;;16.08;8.35;;;;;;;;;;4884256;29;20478;-90
2021/09/29 06:57:07;;;;;;;15.30;7.88;;;;;;;;;;4883535;29;20033;-86
2021/09/29 06:59:40;;;;;;;14.05;8.20;;;;;;;;;;4883187;29;20062;-86
2021/09/29 07:02:06;;;;;;;14.15;8.40;;;;;;;;;;4883493;29;20031;-86
2021/09/29 07:04:50;;;;;;;13.50;8.48;;;;;;;;;;4882955;29;20127;-85
2021/09/29 07:07:19;;;;;;;13.75;8.02;;;;;;;;;;4899881;29;20020;-88
2021/09/29 07:10:44;;;;;;;16.33;8.50;;;;;;;;;;4900136;29;20108;-90
2021/09/29 07:16:09;;;;;;;13.43;7.93;;;;;;;;;;4888390;29;20073;-91
2021/09/29 07:22:16;;;;;;;13.13;7.70;;;;;;;;;;4885066;29;20148;-88
2021/09/29 07:25:22;;;;;;;16.95;7.88;;;;;;;;;;4879391;29;20049;-87
2021/09/29 07:33:47;;;;;;;12.82;7.82;;;;;;;;;;4860443;29;20050;-86
2021/09/29 07:36:14;;;;;;;11.95;6.75;;;;;;;;;;4862892;29;20471;-86
2021/09/29 07:38:40;;;;;;;13.48;7.25;;;;;;;;;;4878666;29;20029;-85
2021/09/29 07:41:06;;;;;;;15.20;7.88;;;;;;;;;;4911261;29;20405;-87
2021/09/29 07:43:33;;;;;;;11.63;7.45;;;;;;;;;;4901121;29;20470;-86
2021/09/29 07:46:06;;;;;;;10.60;6.55;;;;;;;;;;4900983;29;20520;-87
2021/09/29 07:48:32;;;;;;;11.50;7.47;;;;;;;;;;4901438;29;20024;-86
2021/09/29 07:50:58;;;;;;;12.30;7.50;;;;;;;;;;4902997;29;20040;-88
2021/09/29 07:53:25;;;;;;;15.55;7.43;;;;;;;;;;4901363;29;20378;-87
2021/09/29 07:55:55;;;;;;;13.75;7.05;;;;;;;;;;4902417;29;20485;-90
2021/09/29 07:58:24;;;;;;;10.75;6.82;;;;;;;;;;4903971;29;20028;-91
2021/09/29 08:00:58;;;;;;;9.55;6.93;;;;;;;;;;4905076;29;20036;-87
2021/09/29 08:03:26;;;;;;;14.40;7.00;;;;;;;;;;4919654;29;20028;-87
2021/09/29 08:06:13;;;;;;;11.48;6.38;;;;;;;;;;4901590;29;20032;-87
2021/09/29 08:08:54;;;;;;;11.07;7.40;;;;;;;;;;4901060;29;20109;-88
2021/09/29 08:11:26;;;;;;;10.38;6.82;;;;;;;;;;4901721;29;20040;-87
2021/09/29 08:14:01;;;;;;;10.05;6.60;;;;;;;;;;4884728;29;20080;-86
2021/09/29 08:16:37;;;;;;;15.57;6.78;;;;;;;;;;4884565;29;20045;-86
2021/09/29 08:19:03;;;;;;;11.90;6.70;;;;;;;;;;4883152;29;20024;-86
2021/09/29 08:21:30;;;;;;;13.75;7.40;;;;;;;;;;4883164;29;20056;-86
2021/09/29 08:38:27;;;;;;;14.57;7.75;;;;;;;;;;4841556;29;20034;-87
2021/09/29 08:46:14;;;;;;;11.63;7.32;;;;;;;;;;4899799;29;20102;-86
2021/09/29 08:51:46;;;;;;;13.98;8.52;;;;;;;;;;4907348;29;20033;-94
2021/09/29 09:16:32;;;;;;;19.48;11.35;;;;;;;;;;4913744;29;20043;-91
2021/09/29 09:19:02;;;;;;;18.98;11.10;;;;;;;;;;4926504;29;20044;-92
2021/09/29 09:21:29;;;;;;;24.52;11.20;;;;;;;;;;4924964;29;20043;-88
2021/09/29 09:23:59;;;;;;;19.02;11.02;;;;;;;;;;4926129;29;20488;-94
2021/09/29 09:26:31;;;;;;;22.45;11.88;;;;;;;;;;4927997;29;20027;-87
2021/09/29 09:29:14;;;;;;;22.73;11.40;;;;;;;;;;4937313;29;20043;-88
2021/09/29 09:31:42;;;;;;;22.92;11.38;;;;;;;;;;4952537;29;20030;-93
2021/09/29 09:34:09;;;;;;;17.13;10.52;;;;;;;;;;4927060;29;20051;-86
2021/09/29 09:36:40;;;;;;;17.83;11.02;;;;;;;;;;4927023;29;20023;-88
2021/09/29 09:39:08;;;;;;;21.58;11.10;;;;;;;;;;4925248;29;20131;-90
2021/09/29 09:41:35;;;;;;;21.42;10.77;;;;;;;;;;4925323;29;20028;-86
2021/09/29 09:44:02;;;;;;;19.35;10.32;;;;;;;;;;4923638;29;20095;-85
2021/09/29 09:46:29;;;;;;;17.00;9.95;;;;;;;;;;4941732;29;20059;-87
2021/09/29 09:49:21;;;;;;;18.83;11.30;;;;;;;;;;4923934;29;20488;-86
2021/09/29 09:51:54;;;;;;;17.13;10.95;;;;;;;;;;4920920;29;20044;-87
2021/09/29 09:54:20;;;;;;;19.23;11.60;;;;;;;;;;4942212;29;20028;-86
2021/09/29 09:56:57;;;;;;;18.70;11.10;;;;;;;;;;4942625;29;20034;-86
2021/09/29 09:59:29;;;;;;;19.90;10.75;;;;;;;;;;4923329;29;20095;-86
2021/09/29 10:02:11;;;;;;;17.58;10.35;;;;;;;;;;4934795;29;20028;-86
2021/09/29 10:04:53;;;;;;;17.80;10.75;;;;;;;;;;4938301;29;20035;-87
2021/09/29 10:07:22;;;;;;;16.60;10.68;;;;;;;;;;4914843;29;20036;-86
2021/09/29 10:23:51;;;;;;;19.00;10.43;;;;;;;;;;4826778;29;20035;-86
2021/09/29 10:29:41;;;;;;;20.35;11.13;;;;;;;;;;4858526;29;20094;-88
2021/09/29 10:32:27;;;;;;;18.75;11.48;;;;;;;;;;4865348;29;20063;-87
2021/09/29 10:35:56;;;;;;;19.08;11.48;;;;;;;;;;4919556;29;20039;-87
2021/09/29 10:52:55;;;;;;;23.42;11.68;;;;;;;;;;4939674;29;20111;-87
2021/09/29 11:05:14;;;;;;;18.38;11.65;;;;;;;;;;4951535;29;20066;-87
2021/09/29 11:10:16;;;;;;;25.10;12.90;;;;;;;;;;4951063;29;20039;-86
2021/09/29 11:29:53;;;;;;;16.65;11.07;;;;;;;;;;4900231;29;20039;-86
2021/09/29 11:32:25;;;;;;;25.10;12.43;;;;;;;;;;4899530;29;20069;-86
2021/09/29 11:34:53;;;;;;;18.42;11.38;;;;;;;;;;4882488;29;20451;-85
2021/09/29 11:37:46;;;;;;;26.92;13.57;;;;;;;;;;4899398;29;20520;-86
2021/09/29 11:49:23;;;;;;;28.02;12.50;;;;;;;;;;4903138;29;20451;-88
2021/09/29 12:09:03;;;;;;;24.95;14.70;;;;;;;;;;4903177;29;20613;-88
2021/09/29 12:11:45;;;;;;;21.60;13.52;;;;;;;;;;4886472;29;20128;-89
2021/09/29 12:14:40;;;;;;;23.90;14.07;;;;;;;;;;4868662;29;20044;-90
2021/09/29 12:17:15;;;;;;;29.60;15.07;;;;;;;;;;4873523;29;20076;-89
2021/09/29 12:20:26;;;;;;;23.95;14.45;;;;;;;;;;4900430;29;20120;-87
2021/09/29 12:23:11;;;;;;;26.88;15.95;;;;;;;;;;4889869;29;20033;-90
2021/09/29 12:26:22;;;;;;;27.13;15.48;;;;;;;;;;4901512;29;20037;-90
2021/09/29 12:29:17;;;;;;;28.30;15.95;;;;;;;;;;4899429;29;20057;-88
2021/09/29 12:31:56;;;;;;;27.50;15.48;;;;;;;;;;4883821;29;20083;-89
2021/09/29 12:34:31;;;;;;;92.90;43.72;;;;;;;;;;4883607;29;20037;-90
2021/09/29 12:37:08;;;;;;;29.42;18.15;;;;;;;;;;4885754;29;20382;-88
2021/09/29 12:39:36;;;;;;;25.08;15.25;;;;;;;;;;4885837;29;20486;-87
2021/09/29 12:42:02;;;;;;;26.88;14.73;;;;;;;;;;4887661;29;20037;-89
2021/09/29 12:44:28;;;;;;;25.77;14.45;;;;;;;;;;4904718;29;20025;-88
2021/09/29 12:47:06;;;;;;;22.88;14.48;;;;;;;;;;4884852;29;20085;-88
2021/09/29 12:49:42;;;;;;;;;;;;;;;;;;;;;
2021/09/29 12:52:31;;;;;;;27.08;13.85;;;;;;;;;;4902766;29;20105;-95
2021/09/29 12:54:58;;;;;;;27.42;14.85;;;;;;;;;;4883569;29;20061;-91
2021/09/29 12:57:30;;;;;;;24.55;12.75;;;;;;;;;;4884000;29;20036;-94
2021/09/29 13:00:11;;;;;;;21.60;12.65;;;;;;;;;;4899923;29;20051;-93
2021/09/29 13:02:46;;;;;;;27.95;14.82;;;;;;;;;;4880384;29;20478;-95
2021/09/29 13:05:13;;;;;;;27.45;14.48;;;;;;;;;;4882454;29;20124;-91
2021/09/29 13:07:44;;;;;;;24.80;14.57;;;;;;;;;;4882755;29;20040;-90
2021/09/29 13:10:10;;;;;;;28.85;14.20;;;;;;;;;;4882383;29;20032;-88
2021/09/29 13:12:36;;;;;;;23.63;12.90;;;;;;;;;;4891231;29;20032;-88
2021/09/29 13:15:12;;;;;;;27.67;13.05;;;;;;;;;;4904215;29;20474;-88
2021/09/29 13:17:38;;;;;;;22.92;13.25;;;;;;;;;;4775585;29;3719775;-88
2021/09/29 13:20:07;;;;;;;21.83;12.75;;;;;;;;;;4900994;29;20043;-87
2021/09/29 13:22:36;;;;;;;25.13;12.75;;;;;;;;;;4922543;29;20024;-92
2021/09/29 13:42:37;;;;;;;;;;;;;;;;;;;;;
2021/09/29 13:55:20;;;;;;;25.67;15.10;;;;;;;;;;4918501;23;20818;-91
2021/09/29 14:53:25;;;;;;;140.23;42.53;;;;;;;;;;5093130;23;20480;-92
2021/09/29 14:56:27;;;;;;;33.97;18.67;;;;;;;;;;4830240;23;20043;-89
2021/09/29 15:08:57;;;;;;;36.70;19.42;;;;;;;;;;4894302;29;20052;-94
2021/09/29 19:07:22;;;;;;;40.33;20.10;;;;;;;;;;4978721;28;20070;-95
2021/09/29 19:09:48;;;;;;;33.90;19.52;;;;;;;;;;4960752;28;20042;-94
2021/09/29 19:12:14;;;;;;;33.22;19.20;;;;;;;;;;4962715;28;20106;-95
2021/09/29 19:14:42;;;;;;;32.05;18.00;;;;;;;;;;4961246;28;20110;-94
2021/09/29 19:17:08;;;;;;;25.98;16.30;;;;;;;;;;4961925;28;20074;-93
2021/09/29 19:19:37;;;;;;;30.52;16.08;;;;;;;;;;4968285;28;20019;-92
2021/09/29 19:22:03;;;;;;;24.92;14.43;;;;;;;;;;4963020;28;20034;-93
2021/09/29 19:24:29;;;;;;;24.20;13.27;;;;;;;;;;4960689;28;20031;-92
2021/09/29 19:26:56;;;;;;;22.42;13.10;;;;;;;;;;4960119;28;20030;-93
2021/09/29 19:29:22;;;;;;;18.73;11.75;;;;;;;;;;4959785;28;20030;-95
2021/09/29 19:31:49;;;;;;;17.92;11.45;;;;;;;;;;4970150;28;20031;-92
2021/09/29 19:34:16;;;;;;;16.60;11.38;;;;;;;;;;4965630;28;20047;-93
2021/09/29 19:36:43;;;;;;;15.65;10.35;;;;;;;;;;4960603;28;20029;-93
2021/09/29 19:39:12;;;;;;;16.50;9.88;;;;;;;;;;4968830;28;20042;-94
2021/09/29 19:41:41;;;;;;;16.50;9.48;;;;;;;;;;4975410;28;20031;-95
2021/09/29 20:45:09;;;;;;;;;;;;;;;;;;;;;
2021/09/29 20:47:56;;;;;;;12.07;7.90;;;;;;;;;;4899734;29;20040;-91
2021/09/29 20:50:22;;;;;;;12.95;8.38;;;;;;;;;;4882470;29;20032;-96
2021/09/29 20:53:13;;;;;;;14.32;8.32;;;;;;;;;;4903759;29;20055;-95
2021/09/29 20:55:44;;;;;;;15.48;7.40;;;;;;;;;;4888233;29;20028;-95
2021/09/29 21:01:53;;;;;;;;;;;;;;;;;;;;;
2021/09/29 21:08:14;;;;;;;17.42;8.60;;;;;;;;;;4908536;29;20053;-96
2021/09/29 21:23:16;;;;;;;16.15;8.27;;;;;;;;;;4867960;29;20124;-90
2021/09/29 21:32:12;;;;;;;14.52;7.38;;;;;;;;;;4835690;29;20047;-96
2021/09/29 22:17:45;;;;;;;7.47;4.30;;;;;;;;;;4834453;29;20106;-94
2021/09/29 22:42:22;;;;;;;6.40;4.35;;;;;;;;;;4946467;29;20042;-91
2021/09/29 22:53:50;;;;;;;12.85;5.60;;;;;;;;;;4940968;29;20179;-90
2021/09/29 23:07:57;;;;;;;10.45;5.22;;;;;;;;;;4947653;29;20064;-90
2021/09/29 23:10:55;;;;;;;7.95;4.30;;;;;;;;;;4961075;29;20043;-90
2021/09/29 23:13:29;;;;;;;7.28;5.05;;;;;;;;;;4955465;29;20039;-90
2021/09/29 23:32:47;;;;;;;10.05;5.03;;;;;;;;;;4958432;29;20057;-95
2021/09/29 23:35:13;;;;;;;11.43;5.07;;;;;;;;;;4942470;29;20046;-90
2021/09/29 23:37:53;;;;;;;10.18;5.45;;;;;;;;;;4944861;29;20038;-91
2021/09/29 23:40:23;;;;;;;16.17;5.75;;;;;;;;;;4946922;29;20027;-90
2021/09/29 23:42:59;;;;;;;10.85;5.65;;;;;;;;;;4949508;29;20036;-89
2021/09/29 23:45:27;;;;;;;9.70;5.82;;;;;;;;;;4942572;29;20107;-96
2021/09/29 23:47:54;;;;;;;10.70;5.95;;;;;;;;;;4941029;29;20469;-90
2021/09/29 23:50:24;;;;;;;8.25;5.60;;;;;;;;;;4958455;29;20024;-89
2021/09/29 23:53:12;;;;;;;13.38;6.05;;;;;;;;;;4943673;29;20050;-90
2021/09/29 23:56:22;;;;;;;8.05;4.50;;;;;;;;;;4963849;29;20476;-89
2021/09/29 23:59:47;;;;;;;;;;;;;;;;;;;;;
